createdAt,value
2023-05-17T00:00:42.589Z,81.56
2023-05-17T00:03:29.557Z,81.45
2023-05-17T00:06:09.630Z,81.84
2023-05-17T00:08:56.494Z,81.09
2023-05-17T00:11:43.508Z,81.63
2023-05-17T00:14:23.884Z,81.85
2023-05-17T00:17:10.502Z,81.74
2023-05-17T00:19:51.272Z,82.68
2023-05-17T00:22:38.416Z,82.69
2023-05-17T00:25:18.816Z,82.43
2023-05-17T00:28:05.415Z,82.62
2023-05-17T00:30:45.801Z,82.33
2023-05-17T00:33:32.421Z,82.35
2023-05-17T00:36:12.769Z,82.92
2023-05-17T00:38:59.385Z,83.21
2023-05-17T00:41:46.467Z,83.22
2023-05-17T00:44:26.561Z,83.18
2023-05-17T00:47:13.477Z,82.88
2023-05-17T00:49:53.520Z,82.78
2023-05-17T00:52:40.436Z,82.36
2023-05-17T00:55:27.610Z,82.19
2023-05-17T00:58:14.465Z,81.77
2023-05-17T01:01:01.365Z,81.50
2023-05-17T01:03:43.042Z,81.56
2023-05-17T01:06:30.393Z,82.01
2023-05-17T01:09:12.922Z,82.11
2023-05-17T01:12:10.436Z,82.19
2023-05-17T01:15:08.759Z,82.78
2023-05-17T01:18:23.487Z,82.69
2023-05-17T01:21:33.405Z,83.21
2023-05-17T01:24:31.480Z,82.91
2023-05-17T01:27:21.349Z,81.93
2023-05-17T01:30:03.534Z,80.87
2023-05-17T01:32:51.413Z,76.65
2023-05-17T01:35:32.503Z,75.71
2023-05-17T01:38:19.338Z,74.45
2023-05-17T01:41:15.379Z,75.57
2023-05-17T01:44:27.464Z,76.78
2023-05-17T01:47:16.290Z,77.36
2023-05-17T01:50:07.351Z,75.40
2023-05-17T01:53:06.348Z,75.47
2023-05-17T01:56:07.780Z,73.07
2023-05-17T01:58:53.370Z,72.40
2023-05-17T02:01:41.385Z,72.02
2023-05-17T02:04:28.385Z,71.23
2023-05-17T02:07:15.413Z,71.59
2023-05-17T02:09:55.333Z,70.81
2023-05-17T02:12:35.765Z,70.68
2023-05-17T02:15:23.359Z,69.48
2023-05-17T02:18:03.897Z,69.95
2023-05-17T02:20:50.261Z,70.79
2023-05-17T02:23:37.318Z,69.61
2023-05-17T02:26:17.441Z,69.17
2023-05-17T02:29:05.350Z,67.08
2023-05-17T02:31:46.218Z,66.64
2023-05-17T02:34:33.315Z,66.86
2023-05-17T02:37:20.308Z,66.70
2023-05-17T02:40:16.434Z,66.36
2023-05-17T02:43:03.451Z,67.28
2023-05-17T02:45:43.333Z,67.45
2023-05-17T02:48:23.677Z,67.53
2023-05-17T02:51:10.267Z,68.86
2023-05-17T02:53:57.306Z,69.22
2023-05-17T02:56:37.472Z,69.91
2023-05-17T02:59:24.301Z,69.82
2023-05-17T03:02:11.281Z,69.21
2023-05-17T03:04:58.247Z,67.35
2023-05-17T03:07:45.249Z,64.80
2023-05-17T03:10:32.280Z,69.14
2023-05-17T03:13:13.369Z,68.23
2023-05-17T03:16:00.403Z,67.96
2023-05-17T03:21:27.227Z,70.61
2023-05-17T03:24:14.283Z,69.26
2023-05-17T03:27:01.230Z,69.34
2023-05-17T03:29:49.333Z,69.46
2023-05-17T03:32:31.345Z,69.17
2023-05-17T03:35:11.743Z,69.47
2023-05-17T03:38:02.174Z,69.13
2023-05-17T03:40:49.199Z,68.85
2023-05-17T03:43:36.162Z,67.69
2023-05-17T03:46:25.258Z,66.93
2023-05-17T03:49:05.351Z,65.76
2023-05-17T03:51:53.235Z,65.81
2023-05-17T03:54:33.365Z,66.35
2023-05-17T03:57:20.195Z,67.53
2023-05-17T04:00:01.457Z,68.82
2023-05-17T04:02:58.278Z,69.73
2023-05-17T04:05:38.302Z,69.62
2023-05-17T04:08:25.309Z,70.14
2023-05-17T04:11:10.727Z,69.59
2023-05-17T04:13:58.181Z,69.26
2023-05-17T04:16:38.331Z,69.29
2023-05-17T04:19:25.431Z,69.82
2023-05-17T04:22:12.175Z,68.53
2023-05-17T04:24:52.628Z,69.31
2023-05-17T04:27:42.206Z,68.50
2023-05-17T04:30:29.281Z,68.30
2023-05-17T04:33:09.474Z,68.63
2023-05-17T04:35:58.176Z,68.61
2023-05-17T04:38:39.297Z,67.87
2023-05-17T04:41:29.196Z,67.20
2023-05-17T04:44:19.309Z,67.50
2023-05-17T04:46:59.161Z,68.00
2023-05-17T04:49:39.531Z,69.50
2023-05-17T04:52:26.160Z,69.84
2023-05-17T04:55:06.827Z,68.49
2023-05-17T04:57:54.165Z,68.93
2023-05-17T05:00:34.710Z,68.92
2023-05-17T05:03:23.152Z,69.02
2023-05-17T05:06:11.145Z,68.99
2023-05-17T05:08:51.292Z,68.99
2023-05-17T05:11:39.074Z,68.08
2023-05-17T05:14:19.231Z,68.24
2023-05-17T05:17:06.163Z,67.51
2023-05-17T05:19:48.289Z,68.53
2023-05-17T05:22:35.101Z,68.01
2023-05-17T05:25:16.173Z,68.95
2023-05-17T05:28:03.116Z,68.11
2023-05-17T05:30:45.267Z,67.81
2023-05-17T05:33:33.284Z,68.68
2023-05-17T05:36:20.071Z,68.02
2023-05-17T05:39:01.718Z,67.90
2023-05-17T05:41:48.071Z,67.44
2023-05-17T05:44:35.023Z,64.45
2023-05-17T05:47:16.442Z,64.35
2023-05-17T05:50:03.114Z,63.83
2023-05-17T05:52:44.185Z,63.25
2023-05-17T05:55:31.066Z,63.29
2023-05-17T05:58:18.118Z,63.41
2023-05-17T06:00:58.577Z,62.48
2023-05-17T06:03:45.120Z,61.33
2023-05-17T06:06:32.420Z,60.27
2023-05-17T06:09:14.020Z,59.92
2023-05-17T06:11:56.747Z,59.94
2023-05-17T06:14:51.061Z,59.35
2023-05-17T06:17:38.132Z,59.94
2023-05-17T06:20:25.032Z,60.01
2023-05-17T06:23:12.140Z,60.26
2023-05-17T06:25:52.694Z,60.16
2023-05-17T06:28:40.012Z,59.07
2023-05-17T06:31:27.044Z,57.83
2023-05-17T06:34:07.735Z,57.13
2023-05-17T06:36:56.356Z,56.93
2023-05-17T06:39:51.512Z,56.51
2023-05-17T06:42:40.995Z,56.63
2023-05-17T06:45:28.044Z,57.26
2023-05-17T06:48:08.696Z,56.30
2023-05-17T06:50:55.990Z,57.02
2023-05-17T06:53:36.126Z,55.95
2023-05-17T06:56:23.033Z,55.38
2023-05-17T06:59:03.077Z,54.11
2023-05-17T07:01:49.949Z,54.32
2023-05-17T07:04:30.270Z,53.23
2023-05-17T07:07:17.981Z,51.57
2023-05-17T07:09:58.057Z,52.25
2023-05-17T07:12:45.983Z,51.20
2023-05-17T07:15:26.148Z,49.89
2023-05-17T07:18:13.011Z,49.60
2023-05-17T07:20:53.134Z,49.43
2023-05-17T07:23:39.983Z,49.45
2023-05-17T07:40:49.391Z,47.48
2023-05-17T07:43:36.407Z,47.08
2023-05-17T07:46:16.602Z,46.44
2023-05-17T07:49:03.634Z,46.49
2023-05-17T07:51:43.523Z,46.69
2023-05-17T07:54:31.493Z,46.89
2023-05-17T07:57:11.632Z,45.17
2023-05-17T07:59:58.386Z,46.02
2023-05-17T08:02:52.429Z,49.57
2023-05-17T08:05:33.099Z,50.82
2023-05-17T08:08:20.577Z,50.17
2023-05-17T08:11:00.782Z,51.30
2023-05-17T08:13:47.396Z,50.22
2023-05-17T08:16:27.818Z,51.93
2023-05-17T08:19:14.494Z,51.51
2023-05-17T08:21:57.150Z,53.29
2023-05-17T08:24:44.414Z,52.89
2023-05-17T08:27:26.441Z,53.66
2023-05-17T08:30:18.037Z,53.54
2023-05-17T08:33:01.840Z,54.91
2023-05-17T08:35:48.371Z,56.06
2023-05-17T08:38:42.382Z,56.55
2023-05-17T08:41:29.508Z,57.07
2023-05-17T08:44:12.337Z,57.50
2023-05-17T08:47:02.332Z,56.80
2023-05-17T08:49:46.299Z,57.01
2023-05-17T08:52:37.470Z,56.46
2023-05-17T08:55:25.395Z,55.01
2023-05-17T08:58:13.427Z,56.02
2023-05-17T09:00:56.380Z,55.78
2023-05-17T09:03:41.070Z,56.91
2023-05-17T09:06:30.342Z,58.21
2023-05-17T09:09:10.751Z,58.92
2023-05-17T09:11:58.384Z,60.30
2023-05-17T09:14:45.322Z,60.13
2023-05-17T09:17:27.455Z,60.74
2023-05-17T09:20:15.391Z,60.68
2023-05-17T09:23:02.295Z,60.63
2023-05-17T09:25:56.262Z,60.58
2023-05-17T09:28:51.281Z,61.01
2023-05-17T09:31:33.363Z,60.98
2023-05-17T09:34:20.315Z,60.79
2023-05-17T09:37:00.709Z,61.36
2023-05-17T09:39:47.248Z,62.49
2023-05-17T09:42:34.288Z,62.47
2023-05-17T09:45:23.254Z,62.67
2023-05-17T09:48:17.839Z,63.32
2023-05-17T09:51:05.301Z,62.07
2023-05-17T09:53:45.760Z,61.87
2023-05-17T09:56:32.276Z,61.68
2023-05-17T09:59:21.257Z,61.70
2023-05-17T10:02:09.249Z,61.31
2023-05-17T10:04:58.298Z,60.63
2023-05-17T10:07:38.721Z,60.31
2023-05-17T10:10:26.229Z,58.99
2023-05-17T10:13:07.611Z,58.49
2023-05-17T10:15:55.261Z,58.06
2023-05-17T10:18:38.391Z,57.75
2023-05-17T10:21:25.301Z,56.59
2023-05-17T10:24:10.517Z,55.65
2023-05-17T10:26:58.296Z,55.00
2023-05-17T10:29:40.477Z,53.66
2023-05-17T10:32:29.290Z,52.28
2023-05-17T10:35:18.280Z,51.63
2023-05-17T10:37:58.613Z,52.37
2023-05-17T10:40:46.193Z,52.49
2023-05-17T10:43:37.188Z,51.66
2023-05-17T10:46:25.700Z,51.29
2023-05-17T10:49:12.285Z,51.64
2023-05-17T10:51:52.503Z,50.45
2023-05-17T10:54:43.399Z,50.52
2023-05-17T10:57:49.947Z,51.20
2023-05-17T11:00:40.227Z,49.91
2023-05-17T11:03:35.061Z,50.25
2023-05-17T11:06:27.243Z,50.03
2023-05-17T11:09:23.056Z,50.42
2023-05-17T11:12:12.315Z,51.14
2023-05-17T11:14:52.275Z,50.97
2023-05-17T11:17:53.174Z,51.31
2023-05-17T11:20:33.874Z,52.04
2023-05-17T11:23:25.132Z,53.52
2023-05-17T11:26:22.401Z,53.57
2023-05-17T11:29:14.200Z,54.40
2023-05-17T11:31:58.325Z,53.65
2023-05-17T11:34:45.189Z,53.82
2023-05-17T11:37:40.178Z,53.24
2023-05-17T11:40:28.565Z,52.82
2023-05-17T11:43:41.225Z,52.54
2023-05-17T11:46:31.198Z,53.80
2023-05-17T11:49:34.407Z,54.76
2023-05-17T11:52:16.963Z,55.93
2023-05-17T11:55:05.196Z,55.78
2023-05-17T11:57:52.246Z,55.85
2023-05-17T12:00:35.144Z,55.83
2023-05-17T12:03:46.247Z,56.02
2023-05-17T12:06:35.222Z,58.63
2023-05-17T12:09:16.271Z,61.45
2023-05-17T12:12:04.217Z,64.28
2023-05-17T12:14:44.690Z,65.54
2023-05-17T12:17:44.184Z,67.19
2023-05-17T12:20:31.376Z,67.43
2023-05-17T12:23:11.529Z,67.75
2023-05-17T12:25:58.126Z,68.87
2023-05-17T12:29:06.159Z,69.19
2023-05-17T12:31:55.120Z,70.09
2023-05-17T12:34:36.082Z,69.29
2023-05-17T12:37:25.118Z,71.26
2023-05-17T12:40:13.266Z,71.23
2023-05-17T12:43:00.165Z,71.72
2023-05-17T13:02:16.040Z,73.17
2023-05-17T13:04:56.642Z,74.17
2023-05-17T13:07:44.027Z,74.10
2023-05-17T13:10:33.040Z,72.79
2023-05-17T13:13:13.352Z,71.32
2023-05-17T13:16:00.106Z,69.40
2023-05-17T13:19:04.088Z,69.60
2023-05-17T13:21:50.991Z,69.79
2023-05-17T13:24:34.133Z,69.19
2023-05-17T13:27:20.980Z,69.57
2023-05-17T13:30:01.160Z,70.46
2023-05-17T13:32:48.031Z,70.95
2023-05-17T13:35:35.064Z,69.83
2023-05-17T13:38:18.258Z,69.84
2023-05-17T13:41:04.934Z,70.29
2023-05-17T13:43:52.178Z,70.01
2023-05-17T13:46:31.950Z,69.70
2023-05-17T13:49:20.006Z,69.28
2023-05-17T13:52:00.865Z,69.23
2023-05-17T13:54:47.986Z,67.94
2023-05-17T13:57:28.042Z,67.30
2023-05-17T14:00:21.984Z,66.82
2023-05-17T14:03:09.065Z,66.49
2023-05-17T14:05:57.006Z,66.97
2023-05-17T14:08:37.551Z,67.16
2023-05-17T14:11:23.906Z,67.00
2023-05-17T14:14:11.019Z,66.90
2023-05-17T14:16:51.011Z,66.87
2023-05-17T14:19:38.082Z,68.09
2023-05-17T14:22:18.007Z,67.84
2023-05-17T14:25:04.901Z,68.04
2023-05-17T14:27:51.904Z,68.25
2023-05-17T14:30:39.888Z,68.61
2023-05-17T14:33:20.243Z,69.25
2023-05-17T14:36:06.940Z,68.33
2023-05-17T14:38:53.885Z,68.62
2023-05-17T14:41:41.629Z,69.26
2023-05-17T14:44:22.975Z,69.68
2023-05-17T14:47:09.905Z,69.50
2023-05-17T14:49:56.932Z,69.26
2023-05-17T14:52:37.236Z,69.30
2023-05-17T14:55:23.865Z,69.21
2023-05-17T14:58:13.686Z,68.79
2023-05-17T15:01:07.151Z,69.19
2023-05-17T15:03:47.370Z,68.93
2023-05-17T15:06:34.855Z,68.98
2023-05-17T15:09:23.889Z,69.04
2023-05-17T15:12:04.626Z,69.25
2023-05-17T15:14:52.828Z,70.62
2023-05-17T15:17:33.268Z,70.94
2023-05-17T15:20:20.891Z,71.47
2023-05-17T15:23:07.957Z,72.81
2023-05-17T15:25:47.880Z,73.61
2023-05-17T15:28:34.836Z,73.66
2023-05-17T15:31:21.837Z,74.17
2023-05-17T15:34:08.950Z,74.88
2023-05-17T15:36:55.778Z,75.52
2023-05-17T15:39:36.636Z,76.10
2023-05-17T15:42:23.760Z,76.01
2023-05-17T15:45:04.995Z,76.33
2023-05-17T15:47:52.800Z,76.88
2023-05-17T15:50:39.947Z,78.03
2023-05-17T15:53:19.769Z,77.79
2023-05-17T15:56:00.244Z,78.21
2023-05-17T15:58:46.765Z,79.26
2023-05-17T16:01:33.746Z,80.72
2023-05-17T16:04:20.850Z,81.41
2023-05-17T16:07:07.812Z,81.60
2023-05-17T16:09:47.953Z,82.69
2023-05-17T16:12:34.762Z,82.35
2023-05-17T16:15:22.799Z,82.92
2023-05-17T16:18:09.890Z,83.29
2023-05-17T16:20:49.897Z,84.18
2023-05-17T16:23:36.869Z,84.53
2023-05-17T16:26:16.936Z,84.78
2023-05-17T16:29:03.774Z,85.43
2023-05-17T16:31:44.017Z,85.88
2023-05-17T16:34:31.727Z,86.16
2023-05-17T16:37:18.782Z,85.76
2023-05-17T16:40:06.745Z,86.03
2023-05-17T16:42:46.805Z,86.37
2023-05-17T16:45:33.732Z,87.19
2023-05-17T16:48:20.813Z,88.09
2023-05-17T16:51:01.228Z,87.75
2023-05-17T16:53:47.692Z,87.16
2023-05-17T16:56:28.097Z,87.29
2023-05-17T16:59:14.664Z,87.73
2023-05-17T17:02:01.709Z,87.08
2023-05-17T17:04:41.815Z,86.40
2023-05-17T17:07:28.688Z,85.37
2023-05-17T17:10:08.851Z,85.42
2023-05-17T17:12:56.671Z,85.92
2023-05-17T17:15:36.844Z,87.03
2023-05-17T17:18:24.684Z,86.73
2023-05-17T17:21:12.696Z,87.55
2023-05-17T17:23:53.688Z,87.68
2023-05-17T17:26:41.668Z,87.14
2023-05-17T17:29:22.087Z,86.70
2023-05-17T17:32:09.736Z,86.81
2023-05-17T17:34:56.696Z,86.94
2023-05-17T17:37:36.816Z,86.96
2023-05-17T17:40:23.602Z,87.15
2023-05-17T17:43:10.677Z,87.18
2023-05-17T17:45:57.610Z,86.97
2023-05-17T17:48:37.787Z,86.95
2023-05-17T17:51:24.667Z,88.15
2023-05-17T17:54:05.674Z,88.07
2023-05-17T17:56:52.666Z,88.09
2023-05-17T17:59:39.619Z,88.55
2023-05-17T18:02:20.034Z,88.62
2023-05-17T18:05:06.834Z,88.58
2023-05-17T18:07:53.675Z,89.77
2023-05-17T18:10:40.620Z,90.64
2023-05-17T18:13:20.970Z,90.56
2023-05-17T18:16:07.693Z,90.31
2023-05-17T18:18:48.026Z,89.39
2023-05-17T18:21:35.652Z,88.66
2023-05-17T18:24:16.098Z,87.06
2023-05-17T18:27:02.621Z,86.79
2023-05-17T18:29:49.654Z,86.54
2023-05-17T18:32:29.883Z,86.51
2023-05-17T18:35:16.609Z,86.62
2023-05-17T18:37:56.802Z,86.12
2023-05-17T18:40:43.571Z,85.46
2023-05-17T18:43:30.643Z,85.00
2023-05-17T18:46:17.600Z,85.34
2023-05-17T18:48:57.730Z,85.47
2023-05-17T18:51:44.695Z,85.50
2023-05-17T18:54:24.796Z,85.40
2023-05-17T18:57:11.578Z,85.12
2023-05-17T18:59:51.684Z,85.65
2023-05-17T19:02:38.630Z,85.20
2023-05-17T19:05:18.673Z,85.40
2023-05-17T19:08:05.685Z,84.67
2023-05-17T19:10:45.756Z,83.76
2023-05-17T19:13:33.553Z,83.51
2023-05-17T19:16:15.644Z,82.91
2023-05-17T19:19:02.592Z,81.92
2023-05-17T19:21:42.781Z,81.42
2023-05-17T19:24:29.503Z,80.87
2023-05-17T19:27:09.678Z,80.81
2023-05-17T19:29:56.493Z,80.27
2023-05-17T19:32:43.584Z,79.76
